Time;durP1;ratioP1;P1;durP2;ratioP2;P2;SDS_P1;SDS_P2;PMS_P1;PMS_P2;Temp;Humidity;BMP_temperature;BMP_pressure;BME280_temperature;BME280_humidity;BME280_pressure;Samples;Min_cycle;Max_cycle;Signal;HPM_P1;HPM_P2
2021/03/04 00:00:19;;;;;;;5.68;4.03;;;3.50;99.90;;;;;;4998522;28;20181;-80
2021/03/04 00:02:44;;;;;;;9.15;4.80;;;3.40;99.90;;;;;;5015677;28;20440;-80
2021/03/04 00:05:12;;;;;;;11.65;5.03;;;3.30;99.90;;;;;;5013758;28;20078;-81
2021/03/04 00:07:38;;;;;;;8.32;4.82;;;3.30;99.90;;;;;;5015544;28;20082;-80
2021/03/04 00:10:09;;;;;;;9.90;5.22;;;3.20;99.90;;;;;;5012388;28;20086;-81
2021/03/04 00:12:35;;;;;;;7.68;4.35;;;3.10;99.90;;;;;;5001371;28;20139;-81
2021/03/04 00:15:01;;;;;;;8.02;4.47;;;3.00;99.90;;;;;;5000263;28;20162;-81
2021/03/04 00:17:27;;;;;;;7.55;4.07;;;3.00;99.90;;;;;;5014444;28;20141;-80
2021/03/04 00:19:53;;;;;;;6.88;4.88;;;3.00;99.90;;;;;;5015163;28;20606;-80
2021/03/04 00:22:18;;;;;;;7.13;4.22;;;3.10;99.90;;;;;;5014617;28;20161;-79
2021/03/04 00:24:44;;;;;;;5.50;4.28;;;3.20;99.90;;;;;;5010298;28;20148;-80
2021/03/04 00:27:10;;;;;;;7.82;5.32;;;3.20;99.90;;;;;;5012185;28;20090;-80
2021/03/04 00:29:36;;;;;;;7.10;4.05;;;3.20;99.90;;;;;;4996759;28;20664;-80
2021/03/04 00:32:01;;;;;;;5.55;3.40;;;3.20;99.90;;;;;;5002184;28;20106;-79
2021/03/04 00:34:27;;;;;;;8.63;4.05;;;3.10;99.90;;;;;;5011379;28;20156;-80
2021/03/04 00:36:53;;;;;;;7.30;3.53;;;3.00;99.90;;;;;;5013192;28;21060;-79
2021/03/04 00:39:20;;;;;;;7.68;4.30;;;3.00;99.90;;;;;;5001839;28;20083;-80
2021/03/04 00:41:45;;;;;;;6.60;3.88;;;3.00;99.90;;;;;;5021989;28;20082;-80
2021/03/04 00:44:11;;;;;;;8.55;4.07;;;3.10;99.90;;;;;;5006269;28;20189;-80
2021/03/04 00:46:37;;;;;;;6.38;3.85;;;3.10;99.90;;;;;;5012121;28;20093;-80
2021/03/04 00:49:03;;;;;;;9.13;4.13;;;3.10;99.90;;;;;;5012401;28;20729;-80
2021/03/04 00:51:29;;;;;;;9.23;4.63;;;3.20;99.90;;;;;;4995589;28;20105;-79
2021/03/04 00:53:55;;;;;;;7.60;4.38;;;3.10;99.90;;;;;;4999915;28;20709;-80
2021/03/04 00:56:20;;;;;;;9.63;4.25;;;3.10;99.90;;;;;;5010789;28;20144;-79
2021/03/04 00:58:46;;;;;;;8.25;4.28;;;3.20;99.90;;;;;;5003082;28;20153;-80
2021/03/04 01:01:13;;;;;;;8.38;4.70;;;3.30;99.90;;;;;;5014280;28;20081;-80
2021/03/04 01:03:39;;;;;;;5.85;3.92;;;3.20;99.90;;;;;;5014287;28;20078;-80
2021/03/04 01:06:04;;;;;;;8.57;4.05;;;3.30;99.90;;;;;;5014068;28;20654;-80
2021/03/04 01:08:30;;;;;;;6.40;3.90;;;3.20;99.90;;;;;;5004894;28;20595;-80
2021/03/04 01:10:57;;;;;;;5.38;4.32;;;3.30;99.90;;;;;;4999198;28;20088;-80
2021/03/04 01:13:23;;;;;;;7.68;4.35;;;3.30;99.90;;;;;;5004867;28;20165;-79
2021/03/04 01:15:49;;;;;;;8.10;3.90;;;3.30;99.90;;;;;;5014290;28;20651;-80
2021/03/04 01:18:15;;;;;;;5.28;3.58;;;3.30;99.90;;;;;;4999285;28;20097;-80
2021/03/04 01:20:41;;;;;;;6.88;3.80;;;3.20;99.90;;;;;;5007824;28;20082;-80
2021/03/04 01:23:06;;;;;;;8.85;4.68;;;3.30;99.90;;;;;;5024334;28;20138;-80
2021/03/04 01:25:32;;;;;;;10.10;3.60;;;3.30;99.90;;;;;;5016337;28;20101;-80
2021/03/04 01:27:58;;;;;;;5.40;3.58;;;3.30;99.90;;;;;;5014361;28;20078;-80
2021/03/04 01:30:30;;;;;;;6.57;4.40;;;3.50;99.90;;;;;;5004295;28;20089;-80
2021/03/04 01:32:56;;;;;;;6.78;3.40;;;3.30;99.90;;;;;;5021415;28;20087;-80
2021/03/04 01:35:21;;;;;;;7.88;3.78;;;3.20;99.90;;;;;;5013500;28;20098;-80
2021/03/04 01:37:47;;;;;;;6.82;3.70;;;3.10;99.90;;;;;;5010806;28;20097;-80
2021/03/04 01:40:20;;;;;;;5.53;3.53;;;3.10;99.90;;;;;;5018175;28;20116;-80
2021/03/04 01:42:46;;;;;;;6.22;3.83;;;3.20;99.90;;;;;;5016276;28;20104;-79
2021/03/04 01:45:12;;;;;;;8.65;4.32;;;3.10;99.90;;;;;;4998990;28;20197;-80
2021/03/04 01:47:42;;;;;;;8.15;4.50;;;3.10;99.90;;;;;;5009353;28;20740;-79
2021/03/04 01:50:09;;;;;;;7.45;4.10;;;3.10;99.90;;;;;;5015210;28;20082;-79
2021/03/04 01:52:35;;;;;;;7.30;3.38;;;3.10;99.90;;;;;;5016431;28;20074;-80
2021/03/04 01:55:02;;;;;;;10.35;4.55;;;3.10;99.90;;;;;;5001119;28;20144;-80
2021/03/04 01:57:30;;;;;;;6.70;3.75;;;3.10;99.90;;;;;;5018140;28;20137;-80
2021/03/04 01:59:57;;;;;;;6.15;4.22;;;3.10;99.90;;;;;;4999760;28;20090;-80
2021/03/04 02:02:23;;;;;;;5.20;3.35;;;3.20;99.90;;;;;;5012852;28;20084;-79
2021/03/04 02:04:50;;;;;;;8.00;4.13;;;3.20;99.90;;;;;;4998729;28;20081;-80
2021/03/04 02:07:28;;;;;;;9.00;4.45;;;3.30;99.90;;;;;;4997577;28;20105;-79
2021/03/04 02:10:26;;;;;;;6.85;3.88;;;3.40;99.90;;;;;;5022848;28;20105;-80
2021/03/04 02:13:00;;;;;;;6.53;4.78;;;3.30;99.90;;;;;;5015143;28;20548;-80
2021/03/04 02:15:59;;;;;;;9.10;3.35;;;3.30;99.90;;;;;;5014625;28;20093;-79
2021/03/04 02:18:29;;;;;;;8.63;4.13;;;3.30;99.90;;;;;;4991937;28;20105;-79
2021/03/04 02:21:31;;;;;;;7.10;4.22;;;3.20;99.90;;;;;;5015760;28;20074;-80
2021/03/04 02:24:29;;;;;;;6.15;4.28;;;3.20;99.90;;;;;;4981018;28;20089;-78
2021/03/04 02:27:02;;;;;;;7.07;3.63;;;3.20;99.90;;;;;;5009422;28;20493;-79
2021/03/04 02:29:33;;;;;;;6.70;4.70;;;3.20;99.90;;;;;;5015693;28;20078;-80
2021/03/04 02:32:01;;;;;;;7.18;3.75;;;3.20;99.90;;;;;;5016545;28;20085;-79
2021/03/04 02:34:29;;;;;;;8.45;4.03;;;3.10;99.90;;;;;;5014217;28;20086;-80
2021/03/04 02:36:57;;;;;;;7.28;4.22;;;3.20;99.90;;;;;;5009938;28;20858;-80
2021/03/04 02:39:25;;;;;;;7.35;4.20;;;3.00;99.90;;;;;;4998022;28;20529;-79
2021/03/04 02:41:51;;;;;;;7.13;4.38;;;3.20;99.90;;;;;;5006243;28;20071;-80
2021/03/04 02:44:21;;;;;;;8.65;5.00;;;3.30;99.90;;;;;;5005749;28;20086;-79
2021/03/04 02:46:48;;;;;;;8.38;4.22;;;3.30;99.90;;;;;;4998608;28;20086;-80
2021/03/04 02:49:14;;;;;;;9.00;4.45;;;3.30;99.90;;;;;;5003887;28;20074;-79
2021/03/04 02:51:41;;;;;;;7.60;4.78;;;3.30;99.90;;;;;;5014152;28;20093;-80
2021/03/04 02:54:08;;;;;;;8.20;4.78;;;3.30;99.90;;;;;;5020749;28;20165;-79
2021/03/04 02:56:36;;;;;;;7.82;4.45;;;3.30;99.90;;;;;;5013105;28;20153;-79
2021/03/04 02:59:06;;;;;;;10.23;5.10;;;3.30;99.90;;;;;;5001147;28;20085;-80
2021/03/04 03:01:40;;;;;;;6.93;4.32;;;3.40;99.90;;;;;;5001069;28;20108;-79
2021/03/04 03:04:07;;;;;;;6.82;4.05;;;3.30;99.90;;;;;;5001732;28;20077;-80
2021/03/04 03:06:35;;;;;;;8.02;5.03;;;3.30;99.90;;;;;;5012613;28;20100;-79
2021/03/04 03:09:03;;;;;;;8.15;4.88;;;3.30;99.90;;;;;;5016208;28;20074;-80
2021/03/04 03:11:30;;;;;;;8.50;5.22;;;3.30;99.90;;;;;;5002878;28;20081;-80
2021/03/04 03:13:57;;;;;;;10.30;5.10;;;3.30;99.90;;;;;;5000015;28;20085;-80
2021/03/04 03:16:26;;;;;;;6.65;4.45;;;3.30;99.90;;;;;;5015143;28;20561;-80
2021/03/04 03:18:52;;;;;;;10.05;5.55;;;3.40;99.90;;;;;;5018233;28;20081;-80
2021/03/04 03:21:17;;;;;;;9.25;5.22;;;3.40;99.90;;;;;;5016771;28;20141;-81
2021/03/04 03:23:43;;;;;;;8.40;4.88;;;3.40;99.90;;;;;;5015066;28;20537;-80
2021/03/04 03:26:09;;;;;;;9.63;5.45;;;3.50;99.90;;;;;;5011080;28;20627;-80
2021/03/04 03:28:35;;;;;;;10.23;5.78;;;3.60;99.90;;;;;;5012249;28;20177;-79
2021/03/04 03:31:00;;;;;;;11.80;5.65;;;3.50;99.90;;;;;;5007915;28;20077;-79
2021/03/04 03:33:28;;;;;;;10.43;5.07;;;3.60;99.90;;;;;;5019293;28;20081;-78
2021/03/04 03:35:53;;;;;;;12.63;5.95;;;3.70;99.90;;;;;;5017194;28;20272;-81
2021/03/04 03:38:20;;;;;;;8.32;4.85;;;3.70;99.90;;;;;;5016332;28;20069;-81
2021/03/04 03:40:49;;;;;;;10.32;6.18;;;3.70;99.90;;;;;;5012530;28;20078;-82
2021/03/04 03:43:16;;;;;;;11.70;6.25;;;3.60;99.90;;;;;;5015512;28;20106;-81
2021/03/04 03:45:49;;;;;;;9.90;5.22;;;3.70;99.90;;;;;;5012166;28;20125;-81
2021/03/04 03:48:18;;;;;;;11.43;5.97;;;3.90;99.90;;;;;;5014772;28;20086;-81
2021/03/04 03:50:45;;;;;;;8.00;5.40;;;3.80;99.90;;;;;;4999670;28;20501;-82
2021/03/04 03:53:15;;;;;;;8.45;5.10;;;3.70;99.90;;;;;;5014045;28;20161;-81
2021/03/04 03:55:44;;;;;;;9.30;4.97;;;3.70;99.90;;;;;;5006107;28;20110;-80
2021/03/04 03:58:11;;;;;;;9.70;5.55;;;3.70;99.90;;;;;;5024092;28;20164;-81
2021/03/04 04:00:37;;;;;;;9.70;4.97;;;3.80;99.90;;;;;;5012488;28;20078;-81
2021/03/04 04:03:03;;;;;;;8.45;5.65;;;3.80;99.90;;;;;;5018795;28;20085;-81
2021/03/04 04:05:30;;;;;;;7.20;4.40;;;3.90;99.90;;;;;;5010797;28;20467;-81
2021/03/04 04:07:57;;;;;;;9.13;4.63;;;3.70;99.90;;;;;;5002589;28;20100;-81
2021/03/04 04:10:31;;;;;;;7.07;4.40;;;3.80;99.90;;;;;;5029496;28;20081;-80
2021/03/04 04:12:57;;;;;;;7.70;4.25;;;3.80;99.90;;;;;;5013166;28;20606;-80
2021/03/04 04:15:24;;;;;;;8.48;5.10;;;3.90;99.90;;;;;;5005532;28;20189;-81
2021/03/04 04:17:51;;;;;;;6.20;4.45;;;3.90;99.90;;;;;;4995941;28;20073;-80
2021/03/04 04:20:19;;;;;;;8.05;4.75;;;3.80;99.90;;;;;;4995431;28;20082;-82
2021/03/04 04:22:46;;;;;;;10.73;6.22;;;3.90;99.90;;;;;;4996822;28;20485;-81
2021/03/04 04:25:12;;;;;;;8.27;4.90;;;3.90;99.90;;;;;;5004175;28;20178;-81
2021/03/04 04:27:38;;;;;;;6.43;4.20;;;3.80;99.90;;;;;;5011917;28;20639;-80
2021/03/04 04:30:06;;;;;;;8.98;4.85;;;3.90;99.90;;;;;;4995536;28;20136;-81
2021/03/04 04:32:32;;;;;;;8.48;5.20;;;3.90;99.90;;;;;;4995852;28;20109;-81
2021/03/04 04:34:58;;;;;;;8.18;4.60;;;3.90;99.90;;;;;;5017716;28;20547;-81
2021/03/04 04:37:24;;;;;;;6.90;4.68;;;3.90;99.90;;;;;;5001308;28;20208;-80
2021/03/04 04:39:49;;;;;;;7.07;4.05;;;3.90;99.90;;;;;;5013576;28;20124;-81
2021/03/04 04:42:15;;;;;;;7.45;4.68;;;3.90;99.90;;;;;;5018543;28;20739;-81
2021/03/04 04:44:41;;;;;;;5.95;3.78;;;3.90;99.90;;;;;;5018710;28;20081;-81
2021/03/04 04:47:06;;;;;;;6.07;3.78;;;4.00;99.90;;;;;;5016427;28;20094;-81
2021/03/04 04:49:32;;;;;;;11.45;4.78;;;3.90;99.90;;;;;;5009722;28;20090;-81
2021/03/04 04:51:58;;;;;;;8.05;4.47;;;4.00;99.90;;;;;;5018063;28;20078;-81
2021/03/04 04:54:23;;;;;;;7.13;3.88;;;4.20;99.90;;;;;;5008723;28;20082;-83
2021/03/04 04:56:49;;;;;;;9.65;4.22;;;4.10;99.90;;;;;;5018042;28;20101;-82
2021/03/04 04:59:15;;;;;;;8.82;4.10;;;4.20;99.90;;;;;;5013860;28;20467;-81
2021/03/04 05:01:40;;;;;;;6.85;3.78;;;4.10;99.90;;;;;;5014971;28;20074;-81
2021/03/04 05:04:06;;;;;;;5.88;3.65;;;4.10;99.90;;;;;;5016137;28;20424;-81
2021/03/04 05:06:32;;;;;;;6.60;3.75;;;4.20;99.90;;;;;;5006188;28;20102;-81
2021/03/04 05:08:58;;;;;;;7.18;4.68;;;4.20;99.90;;;;;;5001979;28;20814;-81
2021/03/04 05:11:23;;;;;;;6.15;3.45;;;4.30;99.90;;;;;;5012499;28;20141;-81
2021/03/04 05:13:49;;;;;;;8.02;3.78;;;4.30;99.90;;;;;;5035981;28;20078;-80
2021/03/04 05:16:15;;;;;;;6.80;3.63;;;4.30;99.90;;;;;;5016363;28;20108;-81
2021/03/04 05:18:40;;;;;;;7.30;3.78;;;4.30;99.90;;;;;;5025738;28;20482;-81
2021/03/04 05:21:07;;;;;;;6.55;4.35;;;4.30;99.90;;;;;;5014645;28;20417;-81
2021/03/04 05:23:33;;;;;;;6.32;3.85;;;4.20;99.90;;;;;;5030470;28;20073;-81
2021/03/04 05:25:59;;;;;;;5.00;3.30;;;4.20;99.90;;;;;;5014840;28;20612;-78
2021/03/04 05:28:25;;;;;;;6.30;3.63;;;4.20;99.90;;;;;;5010234;28;20082;-79
2021/03/04 05:30:53;;;;;;;11.50;4.40;;;4.30;99.90;;;;;;5007593;28;20086;-80
2021/03/04 05:33:19;;;;;;;5.93;4.03;;;4.20;99.90;;;;;;5012927;28;20082;-79
2021/03/04 05:35:45;;;;;;;6.07;3.33;;;4.30;99.90;;;;;;5014809;28;20124;-81
2021/03/04 05:38:11;;;;;;;5.82;3.15;;;4.40;99.90;;;;;;5015310;28;20070;-82
2021/03/04 05:40:37;;;;;;;8.52;3.78;;;4.10;99.90;;;;;;5012192;28;20073;-81
2021/03/04 05:43:04;;;;;;;8.63;3.88;;;4.10;99.90;;;;;;5016142;28;20571;-81
2021/03/04 05:45:30;;;;;;;6.72;3.13;;;4.20;99.90;;;;;;5014183;28;20126;-81
2021/03/04 05:47:56;;;;;;;5.93;3.75;;;4.30;99.90;;;;;;4999531;28;20537;-82
2021/03/04 05:50:26;;;;;;;6.50;3.50;;;4.20;99.90;;;;;;5021940;28;20086;-81
2021/03/04 05:53:11;;;;;;;5.18;3.42;;;4.10;99.90;;;;;;5013699;28;20081;-80
2021/03/04 05:55:38;;;;;;;9.82;3.58;;;4.10;99.90;;;;;;5003948;28;20593;-82
2021/03/04 05:58:05;;;;;;;5.60;3.60;;;4.20;99.90;;;;;;5021964;28;20097;-81
2021/03/04 06:00:31;;;;;;;8.32;4.22;;;4.10;99.90;;;;;;5000575;28;20537;-82
2021/03/04 06:02:57;;;;;;;7.35;4.15;;;4.00;99.90;;;;;;5012330;28;20081;-81
2021/03/04 06:05:24;;;;;;;6.15;3.60;;;4.10;99.90;;;;;;5005727;28;20156;-83
2021/03/04 06:07:50;;;;;;;5.15;3.70;;;4.10;99.90;;;;;;5013031;28;20086;-84
2021/03/04 06:10:16;;;;;;;6.03;3.60;;;4.00;99.90;;;;;;5005531;28;20459;-82
2021/03/04 06:12:42;;;;;;;7.78;3.15;;;3.90;99.90;;;;;;4998968;28;20080;-83
2021/03/04 06:15:10;;;;;;;6.68;3.50;;;3.90;99.90;;;;;;5010233;28;20102;-84
2021/03/04 06:17:36;;;;;;;8.75;3.92;;;4.00;99.90;;;;;;5020037;28;20204;-82
2021/03/04 06:20:04;;;;;;;6.43;3.67;;;4.10;99.90;;;;;;4984381;28;20624;-83
2021/03/04 06:22:32;;;;;;;5.28;3.40;;;4.10;99.90;;;;;;4977504;28;20170;-82
2021/03/04 06:24:59;;;;;;;5.50;3.40;;;4.20;99.90;;;;;;5004033;28;20078;-84
2021/03/04 06:27:25;;;;;;;6.32;3.80;;;4.10;99.90;;;;;;5011714;28;20082;-81
2021/03/04 06:29:52;;;;;;;6.38;3.22;;;4.10;99.90;;;;;;5003916;28;20081;-80
2021/03/04 06:32:22;;;;;;;7.38;3.95;;;4.20;99.90;;;;;;5013310;28;20089;-83
2021/03/04 06:35:09;;;;;;;7.07;3.22;;;4.20;99.90;;;;;;5009581;28;20151;-85
2021/03/04 06:37:37;;;;;;;8.13;3.80;;;4.20;99.90;;;;;;5009738;28;20500;-84
2021/03/04 06:40:05;;;;;;;6.43;3.38;;;4.30;99.90;;;;;;5017938;28;20173;-84
2021/03/04 06:42:43;;;;;;;8.23;4.10;;;4.30;99.90;;;;;;5014047;28;20085;-84
2021/03/04 06:45:21;;;;;;;6.82;3.35;;;4.30;99.90;;;;;;5013108;28;20105;-83
2021/03/04 06:47:47;;;;;;;9.13;4.20;;;4.40;99.90;;;;;;5014521;28;20234;-85
2021/03/04 06:50:25;;;;;;;10.55;3.95;;;4.40;99.90;;;;;;5003292;28;20210;-84
2021/03/04 06:52:51;;;;;;;5.82;3.65;;;4.40;99.90;;;;;;5006751;28;20093;-85
2021/03/04 06:55:17;;;;;;;5.43;3.22;;;4.50;99.90;;;;;;5013005;28;20586;-83
2021/03/04 06:57:59;;;;;;;5.63;2.97;;;4.60;99.90;;;;;;5006090;28;20075;-83
2021/03/04 07:00:24;;;;;;;6.03;2.88;;;4.70;99.90;;;;;;5029551;28;20105;-84
2021/03/04 07:02:55;;;;;;;6.45;3.65;;;4.50;99.90;;;;;;4997251;28;20105;-83
2021/03/04 07:05:21;;;;;;;4.70;3.22;;;4.60;99.90;;;;;;5007311;28;20180;-86
2021/03/04 07:07:52;;;;;;;5.78;3.13;;;4.50;99.90;;;;;;4999854;28;20531;-83
2021/03/04 07:10:20;;;;;;;5.82;3.75;;;4.70;99.90;;;;;;4996992;28;20157;-83
2021/03/04 07:12:47;;;;;;;7.80;3.72;;;4.80;99.90;;;;;;5004609;28;20081;-83
2021/03/04 07:15:18;;;;;;;11.45;4.00;;;4.80;99.90;;;;;;5006390;28;20181;-80
2021/03/04 07:17:48;;;;;;;6.53;3.35;;;4.80;99.90;;;;;;5021370;28;20071;-81
2021/03/04 07:20:17;;;;;;;5.50;3.10;;;4.80;99.90;;;;;;5011367;28;20082;-82
2021/03/04 07:22:48;;;;;;;6.78;3.20;;;4.90;99.90;;;;;;5012261;28;20565;-80
2021/03/04 07:25:17;;;;;;;6.43;3.55;;;4.90;99.90;;;;;;5003443;28;20160;-81
2021/03/04 07:27:43;;;;;;;6.20;3.38;;;4.90;99.90;;;;;;4998939;28;20082;-82
2021/03/04 07:30:10;;;;;;;28.48;11.80;;;5.00;99.90;;;;;;5010876;28;20525;-81
2021/03/04 07:32:37;;;;;;;36.33;15.80;;;5.10;99.90;;;;;;5012399;28;20074;-81
2021/03/04 07:35:09;;;;;;;24.48;10.88;;;5.10;99.90;;;;;;4999095;28;20140;-82
2021/03/04 07:37:38;;;;;;;10.20;4.40;;;5.10;99.90;;;;;;4996397;28;20085;-81
2021/03/04 07:40:04;;;;;;;6.85;3.45;;;5.10;99.90;;;;;;4997367;28;20437;-82
2021/03/04 07:42:30;;;;;;;9.70;5.13;;;5.20;99.90;;;;;;5008093;28;20595;-81
2021/03/04 07:44:57;;;;;;;8.13;4.75;;;5.20;99.90;;;;;;5001648;28;20102;-81
2021/03/04 07:47:28;;;;;;;5.05;3.58;;;5.20;99.90;;;;;;5013193;28;20074;-81
2021/03/04 07:49:54;;;;;;;7.00;3.55;;;5.30;99.90;;;;;;5004055;28;20090;-85
2021/03/04 07:52:25;;;;;;;7.60;3.60;;;5.30;99.90;;;;;;5011592;28;20136;-84
2021/03/04 07:54:55;;;;;;;7.30;3.65;;;5.30;99.90;;;;;;5012853;28;20094;-83
2021/03/04 07:57:28;;;;;;;6.75;4.22;;;5.30;99.90;;;;;;5007658;28;20077;-83
2021/03/04 08:00:04;;;;;;;9.82;4.13;;;5.40;99.90;;;;;;5002301;28;20078;-85
2021/03/04 08:02:33;;;;;;;8.57;3.65;;;5.50;99.90;;;;;;5015047;28;20452;-85
2021/03/04 08:05:09;;;;;;;10.63;4.78;;;5.60;99.90;;;;;;5013498;28;20154;-83
2021/03/04 08:07:35;;;;;;;7.82;4.95;;;5.60;99.90;;;;;;5002374;28;20601;-81
2021/03/04 08:10:08;;;;;;;7.72;4.45;;;5.70;99.90;;;;;;5013429;28;20149;-80
2021/03/04 08:12:58;;;;;;;10.27;5.75;;;5.70;99.90;;;;;;5005253;28;20082;-81
2021/03/04 08:15:34;;;;;;;6.65;3.80;;;5.80;99.90;;;;;;4998054;28;20094;-81
2021/03/04 08:18:00;;;;;;;6.63;3.55;;;5.90;99.90;;;;;;4996649;28;20082;-81
2021/03/04 08:20:27;;;;;;;5.28;3.30;;;6.10;99.90;;;;;;5006684;28;20085;-81
2021/03/04 08:22:57;;;;;;;6.10;3.35;;;6.20;99.90;;;;;;5002601;28;20097;-80
2021/03/04 08:25:28;;;;;;;7.97;3.67;;;6.20;99.90;;;;;;5010010;28;20098;-82
2021/03/04 08:27:55;;;;;;;9.52;3.53;;;6.40;99.90;;;;;;5004087;28;20070;-82
2021/03/04 08:30:37;;;;;;;7.40;3.50;;;6.40;99.90;;;;;;5015064;28;20536;-83
2021/03/04 08:33:06;;;;;;;9.57;3.67;;;6.50;99.90;;;;;;5010233;28;20078;-83
2021/03/04 08:35:38;;;;;;;6.68;3.97;;;6.60;99.90;;;;;;5014855;28;20108;-84
2021/03/04 08:38:08;;;;;;;6.18;3.92;;;6.60;99.90;;;;;;5006961;28;20070;-83
2021/03/04 08:40:51;;;;;;;9.23;3.65;;;6.70;99.90;;;;;;5006732;28;20541;-83
2021/03/04 08:43:25;;;;;;;7.00;3.70;;;6.80;99.90;;;;;;5010811;28;20086;-84
2021/03/04 08:45:57;;;;;;;7.70;3.35;;;6.90;99.90;;;;;;5003253;28;20136;-84
2021/03/04 08:48:25;;;;;;;6.00;3.30;;;7.00;99.90;;;;;;5011034;28;20086;-82
2021/03/04 08:50:55;;;;;;;7.72;3.40;;;7.00;99.90;;;;;;5001469;28;20193;-83
2021/03/04 08:53:25;;;;;;;7.70;3.38;;;7.10;99.90;;;;;;5011823;28;20085;-82
2021/03/04 08:55:55;;;;;;;9.18;3.22;;;7.20;99.90;;;;;;5010417;28;20098;-85
2021/03/04 08:58:24;;;;;;;8.60;3.83;;;7.30;99.90;;;;;;4999502;28;20075;-81
2021/03/04 09:00:52;;;;;;;5.80;3.25;;;7.30;99.90;;;;;;4997536;28;20080;-82
2021/03/04 09:03:21;;;;;;;5.10;2.70;;;7.40;99.90;;;;;;5000039;28;20079;-81
2021/03/04 09:05:48;;;;;;;11.85;3.42;;;7.50;98.80;;;;;;5000131;28;20534;-80
2021/03/04 09:08:20;;;;;;;8.73;3.25;;;7.60;99.70;;;;;;5006515;28;20078;-84
2021/03/04 09:10:47;;;;;;;6.45;3.00;;;7.70;99.00;;;;;;5012199;28;20081;-82
2021/03/04 09:13:25;;;;;;;10.73;3.70;;;7.70;98.40;;;;;;5012749;28;20082;-81
2021/03/04 09:16:05;;;;;;;8.50;4.20;;;7.90;99.80;;;;;;5011934;28;20441;-81
2021/03/04 09:18:32;;;;;;;7.53;2.92;;;7.80;98.30;;;;;;5013606;28;20089;-81
2021/03/04 09:21:01;;;;;;;6.32;3.85;;;7.90;99.20;;;;;;5009068;28;20600;-81
2021/03/04 09:23:28;;;;;;;7.15;3.47;;;8.10;95.40;;;;;;5005495;28;20078;-80
2021/03/04 09:25:57;;;;;;;10.40;4.82;;;8.20;94.90;;;;;;5009798;28;20098;-80
2021/03/04 09:28:23;;;;;;;6.63;4.28;;;8.20;94.40;;;;;;5005812;28;20078;-81
2021/03/04 09:30:49;;;;;;;7.07;3.33;;;8.00;94.50;;;;;;5013773;28;20337;-80
2021/03/04 09:33:23;;;;;;;8.30;4.10;;;8.40;90.30;;;;;;5004446;28;20113;-81
2021/03/04 09:36:03;;;;;;;10.02;4.93;;;8.40;85.40;;;;;;5013022;28;20098;-81
2021/03/04 09:38:34;;;;;;;10.57;5.35;;;8.30;85.00;;;;;;5016341;28;20089;-81
2021/03/04 09:41:14;;;;;;;10.80;3.92;;;8.50;85.60;;;;;;5003324;28;20070;-81
2021/03/04 09:43:51;;;;;;;7.43;3.10;;;8.70;81.50;;;;;;5008726;28;20460;-84
2021/03/04 09:46:33;;;;;;;7.22;3.80;;;8.90;77.20;;;;;;5013020;28;20144;-80
2021/03/04 09:49:20;;;;;;;10.57;4.35;;;8.90;79.10;;;;;;5014039;28;20082;-81
2021/03/04 09:51:46;;;;;;;6.30;3.28;;;8.90;81.20;;;;;;5011070;28;20445;-82
2021/03/04 09:54:27;;;;;;;11.98;5.03;;;8.90;77.40;;;;;;5015469;28;20084;-81
2021/03/04 09:57:04;;;;;;;6.95;3.38;;;9.10;78.50;;;;;;5010539;28;20097;-82
2021/03/04 09:59:29;;;;;;;10.65;4.03;;;9.10;79.00;;;;;;5018942;28;20101;-82
2021/03/04 10:01:55;;;;;;;9.95;4.30;;;9.00;80.10;;;;;;5005526;28;20123;-82
2021/03/04 10:04:26;;;;;;;11.43;4.38;;;9.30;77.60;;;;;;5008848;28;20078;-81
2021/03/04 10:06:52;;;;;;;9.65;4.53;;;9.30;80.10;;;;;;5007095;28;20161;-82
2021/03/04 10:09:25;;;;;;;11.35;4.93;;;9.20;81.60;;;;;;5013293;28;20145;-81
2021/03/04 10:11:51;;;;;;;9.70;4.75;;;9.20;79.30;;;;;;5007547;28;20117;-81
2021/03/04 10:14:17;;;;;;;9.27;4.38;;;9.20;81.10;;;;;;5005158;28;20087;-82
2021/03/04 10:16:54;;;;;;;11.23;5.15;;;9.40;79.60;;;;;;5000489;28;20110;-81
2021/03/04 10:19:19;;;;;;;7.82;4.43;;;9.20;79.90;;;;;;5002233;28;20078;-81
2021/03/04 10:21:45;;;;;;;8.82;5.07;;;9.30;79.30;;;;;;5005510;28;20122;-81
2021/03/04 10:24:13;;;;;;;10.60;4.72;;;9.30;80.70;;;;;;4998140;28;20090;-82
2021/03/04 10:26:39;;;;;;;11.48;5.72;;;9.20;82.00;;;;;;5011070;28;20137;-82
2021/03/04 10:29:04;;;;;;;9.25;5.50;;;9.30;82.70;;;;;;5016148;28;20086;-83
2021/03/04 10:31:30;;;;;;;10.23;4.93;;;9.30;82.90;;;;;;5015074;28;20082;-82
2021/03/04 10:33:56;;;;;;;9.38;5.40;;;9.30;82.50;;;;;;5017876;28;20082;-83
2021/03/04 10:36:22;;;;;;;13.27;6.40;;;9.30;83.20;;;;;;5013378;28;20102;-83
2021/03/04 10:38:54;;;;;;;10.80;5.63;;;9.50;80.50;;;;;;5014653;28;20146;-84
2021/03/04 10:41:21;;;;;;;12.18;6.38;;;9.40;83.10;;;;;;5006683;28;20968;-84
2021/03/04 10:46:42;;;;;;;13.00;5.78;;;9.50;79.70;;;;;;5005426;28;20102;-84
2021/03/04 10:49:08;;;;;;;11.65;6.20;;;9.50;81.20;;;;;;5021529;28;20108;-83
2021/03/04 10:51:40;;;;;;;13.13;5.50;;;9.40;83.00;;;;;;5014129;28;20082;-83
2021/03/04 10:54:06;;;;;;;12.90;5.22;;;9.40;83.10;;;;;;5009359;28;20441;-83
2021/03/04 10:56:31;;;;;;;12.75;6.65;;;9.50;82.90;;;;;;5016779;28;20101;-83
2021/03/04 10:59:00;;;;;;;9.60;4.80;;;9.60;81.80;;;;;;5014254;28;20078;-83
2021/03/04 11:01:26;;;;;;;10.32;6.75;;;9.60;82.30;;;;;;5010156;28;20170;-84
2021/03/04 11:03:51;;;;;;;9.52;5.22;;;9.60;81.80;;;;;;5008391;28;20106;-84
2021/03/04 11:06:17;;;;;;;13.27;5.10;;;9.70;81.80;;;;;;5013832;28;20500;-84
2021/03/04 11:08:42;;;;;;;13.00;6.47;;;9.70;81.50;;;;;;5006322;28;20173;-84
2021/03/04 11:11:09;;;;;;;10.45;5.22;;;9.70;81.80;;;;;;5010515;28;22001;-83
2021/03/04 11:13:35;;;;;;;12.18;5.80;;;9.80;80.20;;;;;;5010507;28;20074;-85
2021/03/04 11:16:01;;;;;;;11.45;6.00;;;9.80;80.00;;;;;;4998919;28;20128;-82
2021/03/04 11:18:26;;;;;;;12.10;5.70;;;9.90;78.40;;;;;;5007140;28;20101;-83
2021/03/04 11:20:52;;;;;;;13.82;5.53;;;9.90;78.20;;;;;;5007300;28;20537;-84
2021/03/04 11:23:17;;;;;;;16.60;5.38;;;9.80;80.70;;;;;;5002259;28;20082;-84
2021/03/04 11:25:43;;;;;;;12.10;5.90;;;9.90;79.50;;;;;;5007132;28;20184;-83
2021/03/04 11:28:09;;;;;;;11.60;6.32;;;9.90;77.80;;;;;;5000937;28;20597;-82
2021/03/04 11:30:35;;;;;;;13.18;5.90;;;9.90;77.10;;;;;;5002210;28;20078;-81
2021/03/04 11:33:04;;;;;;;11.18;5.75;;;9.90;79.00;;;;;;4999352;28;20077;-82
2021/03/04 11:35:30;;;;;;;11.43;5.40;;;10.30;74.10;;;;;;5001985;28;20098;-81
2021/03/04 11:37:56;;;;;;;7.97;4.57;;;10.40;72.60;;;;;;5007202;28;20099;-81
2021/03/04 11:40:23;;;;;;;14.75;5.45;;;10.40;71.00;;;;;;4998296;28;20081;-82
2021/03/04 11:42:49;;;;;;;11.50;5.43;;;10.40;69.70;;;;;;5019622;28;20564;-80
2021/03/04 11:45:16;;;;;;;10.00;5.72;;;10.60;75.10;;;;;;5012597;28;20101;-80
2021/03/04 11:47:41;;;;;;;8.75;4.82;;;10.80;71.70;;;;;;5010563;28;20097;-81
2021/03/04 11:50:08;;;;;;;8.48;5.10;;;11.10;66.90;;;;;;5016796;28;20082;-82
2021/03/04 11:52:33;;;;;;;12.23;4.68;;;11.10;67.50;;;;;;5012551;28;20153;-82
2021/03/04 11:54:59;;;;;;;7.50;3.90;;;11.20;65.10;;;;;;5016978;28;20121;-81
2021/03/04 11:57:25;;;;;;;9.45;5.22;;;11.00;66.30;;;;;;5000399;28;20071;-82
2021/03/04 11:59:51;;;;;;;10.23;5.28;;;11.00;65.40;;;;;;5006453;28;20092;-82
2021/03/04 12:02:16;;;;;;;9.57;4.97;;;11.10;65.80;;;;;;5011253;28;20165;-81
2021/03/04 12:04:42;;;;;;;9.05;4.68;;;11.30;64.60;;;;;;5004624;28;20455;-81
2021/03/04 12:07:08;;;;;;;11.27;6.00;;;11.30;63.50;;;;;;5000940;28;20089;-81
2021/03/04 12:09:34;;;;;;;13.65;5.45;;;11.30;64.20;;;;;;4994552;28;20074;-81
2021/03/04 12:12:00;;;;;;;8.07;4.85;;;11.30;63.40;;;;;;4997338;28;20133;-81
2021/03/04 12:14:25;;;;;;;10.05;5.60;;;11.60;63.60;;;;;;5000537;28;20185;-81
2021/03/04 12:16:51;;;;;;;13.15;5.57;;;11.60;63.10;;;;;;5014993;28;20163;-81
2021/03/04 12:19:17;;;;;;;8.65;5.05;;;11.60;60.30;;;;;;5004587;28;20084;-81
2021/03/04 12:21:43;;;;;;;11.88;6.25;;;11.50;63.40;;;;;;5013376;28;20778;-81
2021/03/04 12:24:09;;;;;;;13.13;6.70;;;11.60;63.00;;;;;;5005717;28;20097;-82
2021/03/04 12:26:35;;;;;;;8.38;4.97;;;11.80;63.60;;;;;;5014686;28;20090;-82
2021/03/04 12:29:01;;;;;;;12.10;6.07;;;11.90;63.50;;;;;;5011332;28;20077;-82
2021/03/04 12:31:27;;;;;;;14.18;5.93;;;12.10;62.50;;;;;;5003610;28;20082;-83
2021/03/04 12:33:52;;;;;;;11.15;6.00;;;11.90;61.50;;;;;;5013431;28;20070;-82
2021/03/04 12:36:18;;;;;;;14.50;6.38;;;11.90;59.50;;;;;;5006488;28;20574;-82
2021/03/04 12:38:44;;;;;;;11.13;5.75;;;12.00;62.20;;;;;;5001984;28;20082;-82
2021/03/04 12:41:10;;;;;;;11.55;5.78;;;11.90;60.60;;;;;;5000717;28;20078;-82
2021/03/04 12:43:36;;;;;;;11.90;5.53;;;12.00;59.60;;;;;;4999261;28;20176;-82
2021/03/04 12:46:02;;;;;;;13.20;6.88;;;11.80;61.30;;;;;;5014220;28;20587;-82
2021/03/04 12:48:28;;;;;;;13.13;6.38;;;12.10;61.70;;;;;;5007786;28;20121;-83
2021/03/04 12:50:54;;;;;;;12.68;6.47;;;12.10;59.70;;;;;;4998219;28;20078;-83
2021/03/04 12:53:20;;;;;;;12.93;6.00;;;12.20;59.20;;;;;;5014512;28;20078;-83
2021/03/04 12:55:46;;;;;;;13.30;6.00;;;12.10;61.90;;;;;;5011692;28;20104;-82
2021/03/04 12:58:15;;;;;;;12.98;6.20;;;12.10;63.10;;;;;;5011635;28;20082;-82
2021/03/04 13:00:44;;;;;;;17.27;5.70;;;12.20;58.90;;;;;;5005300;28;20070;-82